KLAR

Laramie Regional Airport

Laramie, Wyoming, USA
METAR KLAR 190853Z AUTO 12005KT 10SM CLR 10/M02 A3007 RMK AO2 SLP065 T01001017 55002
Observed Flight Rules
Sep-19 @ 08:53 UTC (25 minutes ago) Visual Flight Rules
Wind Visibility Clouds
120° at 5 knots 10 miles
  • Clear skies
Temperatures Readings
Current 10°C / 50°F
Dewpoint -2°C / 28°F
Humidity 43%
Altimeter 30.07" Hg
Pressure 1006.5 hPa
Elevation 2216
METAR KLAR 190853Z AUTO 12005KT 10SM CLR 10/M02 A3007 RMK AO2 SLP065 T01001017 55002
Observed Flight Rules
Sep-19 @ 08:53 UTC
(25 minutes ago)
VFR
Wind Visibility
120° at 5 knots 10 miles
Clouds
  • Clear skies
Temperature Dewpoint
10°C / 50°F -2°C / 28°F
Humidity Altimeter Pressure
43% 30.07" Hg 1006.5 hPa